sensor_id;sensor_type;location;lat;lon;timestamp;pressure;altitude;pressure_sealevel;temperature;humidity
16793;BME280;8513;42.662;23.350;2022-10-12T00:02:05;95496.31;;;14.39;67.84
16793;BME280;8513;42.662;23.350;2022-10-12T00:04:30;95488.84;;;14.26;68.22
16793;BME280;8513;42.662;23.350;2022-10-12T00:06:56;95499.63;;;14.33;67.99
16793;BME280;8513;42.662;23.350;2022-10-12T00:09:21;95501.09;;;14.36;68.24
16793;BME280;8513;42.662;23.350;2022-10-12T00:11:47;95490.34;;;14.29;68.15
16793;BME280;8513;42.662;23.350;2022-10-12T00:14:12;95484.09;;;14.38;67.72
16793;BME280;8513;42.662;23.350;2022-10-12T00:16:38;95487.03;;;14.35;67.62
16793;BME280;8513;42.662;23.350;2022-10-12T00:19:03;95492.50;;;14.42;67.48
16793;BME280;8513;42.662;23.350;2022-10-12T00:21:29;95494.34;;;14.41;67.40
16793;BME280;8513;42.662;23.350;2022-10-12T00:23:56;95484.56;;;14.25;67.41
16793;BME280;8513;42.662;23.350;2022-10-12T00:26:23;95489.03;;;14.25;67.82
16793;BME280;8513;42.662;23.350;2022-10-12T00:28:54;95485.88;;;14.29;67.68
16793;BME280;8513;42.662;23.350;2022-10-12T00:31:21;95482.06;;;14.24;67.70
16793;BME280;8513;42.662;23.350;2022-10-12T00:33:47;95483.41;;;14.28;67.83
16793;BME280;8513;42.662;23.350;2022-10-12T00:36:24;95489.53;;;14.37;67.89
16793;BME280;8513;42.662;23.350;2022-10-12T00:38:53;95485.38;;;14.42;67.42
16793;BME280;8513;42.662;23.350;2022-10-12T00:41:23;95484.72;;;14.40;67.66
16793;BME280;8513;42.662;23.350;2022-10-12T00:43:49;95482.72;;;14.26;67.41
16793;BME280;8513;42.662;23.350;2022-10-12T00:46:26;95487.69;;;14.29;67.68
16793;BME280;8513;42.662;23.350;2022-10-12T00:51:32;95485.72;;;14.31;67.56
16793;BME280;8513;42.662;23.350;2022-10-12T00:54:02;95477.09;;;14.21;68.01
16793;BME280;8513;42.662;23.350;2022-10-12T00:56:31;95483.88;;;14.23;67.98
16793;BME280;8513;42.662;23.350;2022-10-12T00:59:00;95471.47;;;14.16;68.53
16793;BME280;8513;42.662;23.350;2022-10-12T01:01:27;95474.09;;;14.16;68.48
16793;BME280;8513;42.662;23.350;2022-10-12T01:03:53;95469.84;;;14.23;68.44
16793;BME280;8513;42.662;23.350;2022-10-12T01:06:18;95472.81;;;14.28;68.29
16793;BME280;8513;42.662;23.350;2022-10-12T01:08:45;95470.31;;;14.26;68.21
16793;BME280;8513;42.662;23.350;2022-10-12T01:11:10;95466.97;;;14.08;68.65
16793;BME280;8513;42.662;23.350;2022-10-12T01:13:36;95471.81;;;14.21;68.66
16793;BME280;8513;42.662;23.350;2022-10-12T01:16:40;95477.25;;;14.19;68.71
16793;BME280;8513;42.662;23.350;2022-10-12T01:21:39;95479.53;;;14.06;69.14
16793;BME280;8513;42.662;23.350;2022-10-12T01:25:06;95482.03;;;14.07;69.09
16793;BME280;8513;42.662;23.350;2022-10-12T01:35:45;95476.75;;;14.16;68.31
16793;BME280;8513;42.662;23.350;2022-10-12T01:38:22;95481.69;;;14.10;68.66
16793;BME280;8513;42.662;23.350;2022-10-12T01:40:57;95482.69;;;14.01;69.06
16793;BME280;8513;42.662;23.350;2022-10-12T01:43:38;95480.53;;;14.05;69.10
16793;BME280;8513;42.662;23.350;2022-10-12T01:48:47;95481.03;;;14.08;68.63
16793;BME280;8513;42.662;23.350;2022-10-12T01:51:16;95470.44;;;14.00;68.55
16793;BME280;8513;42.662;23.350;2022-10-12T02:02:25;95482.34;;;14.04;68.77
16793;BME280;8513;42.662;23.350;2022-10-12T02:05:04;95479.22;;;14.09;68.56
16793;BME280;8513;42.662;23.350;2022-10-12T02:07:52;95481.38;;;14.13;68.11
16793;BME280;8513;42.662;23.350;2022-10-12T02:10:32;95484.00;;;14.05;68.46
16793;BME280;8513;42.662;23.350;2022-10-12T02:13:02;95495.25;;;14.07;68.49
16793;BME280;8513;42.662;23.350;2022-10-12T02:15:28;95493.94;;;14.03;68.75
16793;BME280;8513;42.662;23.350;2022-10-12T02:17:56;95499.88;;;14.13;68.20
16793;BME280;8513;42.662;23.350;2022-10-12T02:20:23;95498.91;;;14.15;68.15
16793;BME280;8513;42.662;23.350;2022-10-12T02:22:50;95496.25;;;14.15;68.30
16793;BME280;8513;42.662;23.350;2022-10-12T02:25:19;95503.53;;;14.21;68.08
16793;BME280;8513;42.662;23.350;2022-10-12T02:27:51;95505.19;;;14.22;67.98
16793;BME280;8513;42.662;23.350;2022-10-12T02:30:19;95496.88;;;14.00;68.60
16793;BME280;8513;42.662;23.350;2022-10-12T02:33:05;95502.16;;;14.00;68.86
16793;BME280;8513;42.662;23.350;2022-10-12T02:35:46;95504.81;;;14.08;68.39
16793;BME280;8513;42.662;23.350;2022-10-12T02:38:18;95500.53;;;14.07;68.08
16793;BME280;8513;42.662;23.350;2022-10-12T02:40:55;95506.81;;;14.06;68.18
16793;BME280;8513;42.662;23.350;2022-10-12T02:43:28;95492.09;;;14.04;68.32
16793;BME280;8513;42.662;23.350;2022-10-12T02:45:58;95494.56;;;14.05;68.13
16793;BME280;8513;42.662;23.350;2022-10-12T02:48:25;95495.25;;;14.16;67.63
16793;BME280;8513;42.662;23.350;2022-10-12T02:50:54;95497.25;;;14.13;67.65
16793;BME280;8513;42.662;23.350;2022-10-12T02:53:22;95502.19;;;14.08;67.68
16793;BME280;8513;42.662;23.350;2022-10-12T02:55:53;95504.53;;;14.11;67.52
16793;BME280;8513;42.662;23.350;2022-10-12T02:58:21;95503.84;;;14.09;67.36
16793;BME280;8513;42.662;23.350;2022-10-12T03:00:46;95508.47;;;14.07;67.63
16793;BME280;8513;42.662;23.350;2022-10-12T03:03:11;95505.47;;;14.02;68.35
16793;BME280;8513;42.662;23.350;2022-10-12T03:05:37;95500.38;;;14.09;68.95
16793;BME280;8513;42.662;23.350;2022-10-12T03:08:02;95502.03;;;14.10;68.98
16793;BME280;8513;42.662;23.350;2022-10-12T03:10:28;95502.84;;;14.10;69.21
16793;BME280;8513;42.662;23.350;2022-10-12T03:12:54;95500.03;;;13.96;69.63
16793;BME280;8513;42.662;23.350;2022-10-12T03:15:19;95497.53;;;13.94;69.98
16793;BME280;8513;42.662;23.350;2022-10-12T03:17:46;95501.53;;;13.98;69.86
16793;BME280;8513;42.662;23.350;2022-10-12T03:20:11;95500.81;;;13.88;70.26
16793;BME280;8513;42.662;23.350;2022-10-12T03:22:37;95498.69;;;13.92;70.15
16793;BME280;8513;42.662;23.350;2022-10-12T03:25:02;95500.50;;;13.91;70.26
16793;BME280;8513;42.662;23.350;2022-10-12T03:27:28;95495.56;;;13.96;70.24
16793;BME280;8513;42.662;23.350;2022-10-12T03:29:53;95492.09;;;13.96;70.48
16793;BME280;8513;42.662;23.350;2022-10-12T03:32:19;95487.28;;;13.91;70.61
16793;BME280;8513;42.662;23.350;2022-10-12T03:34:44;95493.72;;;13.88;70.50
16793;BME280;8513;42.662;23.350;2022-10-12T03:37:10;95499.16;;;13.95;70.32
16793;BME280;8513;42.662;23.350;2022-10-12T03:39:35;95495.19;;;13.83;70.75
16793;BME280;8513;42.662;23.350;2022-10-12T03:42:00;95498.19;;;13.88;70.55
16793;BME280;8513;42.662;23.350;2022-10-12T03:44:26;95499.34;;;13.94;70.19
16793;BME280;8513;42.662;23.350;2022-10-12T03:46:51;95500.78;;;13.80;70.66
16793;BME280;8513;42.662;23.350;2022-10-12T03:49:17;95493.22;;;13.85;70.40
16793;BME280;8513;42.662;23.350;2022-10-12T03:51:42;95500.44;;;13.75;70.90
16793;BME280;8513;42.662;23.350;2022-10-12T03:54:08;95486.38;;;13.66;71.26
16793;BME280;8513;42.662;23.350;2022-10-12T03:56:33;95494.50;;;13.81;71.10
16793;BME280;8513;42.662;23.350;2022-10-12T03:58:59;95492.69;;;13.81;71.36
16793;BME280;8513;42.662;23.350;2022-10-12T04:01:24;95490.59;;;13.93;71.02
16793;BME280;8513;42.662;23.350;2022-10-12T04:03:50;95498.84;;;13.90;72.17
16793;BME280;8513;42.662;23.350;2022-10-12T04:06:15;95495.88;;;13.93;72.08
16793;BME280;8513;42.662;23.350;2022-10-12T04:08:41;95501.53;;;13.98;71.78
16793;BME280;8513;42.662;23.350;2022-10-12T04:11:06;95500.34;;;13.93;72.32
16793;BME280;8513;42.662;23.350;2022-10-12T04:13:32;95508.44;;;13.91;72.41
16793;BME280;8513;42.662;23.350;2022-10-12T04:16:04;95504.97;;;13.90;72.10
16793;BME280;8513;42.662;23.350;2022-10-12T04:18:30;95507.25;;;13.85;72.29
16793;BME280;8513;42.662;23.350;2022-10-12T04:20:58;95506.69;;;13.74;72.55
16793;BME280;8513;42.662;23.350;2022-10-12T04:23:23;95504.09;;;13.82;72.72
16793;BME280;8513;42.662;23.350;2022-10-12T04:25:49;95508.06;;;13.86;72.04
16793;BME280;8513;42.662;23.350;2022-10-12T04:28:14;95514.13;;;13.70;73.08
16793;BME280;8513;42.662;23.350;2022-10-12T04:30:39;95516.59;;;13.63;73.60
16793;BME280;8513;42.662;23.350;2022-10-12T04:33:05;95522.09;;;13.44;74.81
16793;BME280;8513;42.662;23.350;2022-10-12T04:35:30;95516.19;;;13.50;74.41
16793;BME280;8513;42.662;23.350;2022-10-12T04:37:56;95521.88;;;13.63;74.02
16793;BME280;8513;42.662;23.350;2022-10-12T04:40:21;95521.88;;;13.63;72.98
16793;BME280;8513;42.662;23.350;2022-10-12T04:42:47;95512.59;;;13.59;73.28
16793;BME280;8513;42.662;23.350;2022-10-12T04:45:12;95514.59;;;13.65;72.96
16793;BME280;8513;42.662;23.350;2022-10-12T04:47:38;95516.75;;;13.70;72.44
16793;BME280;8513;42.662;23.350;2022-10-12T04:50:04;95526.97;;;13.65;72.34
16793;BME280;8513;42.662;23.350;2022-10-12T04:52:29;95514.44;;;13.67;72.42
16793;BME280;8513;42.662;23.350;2022-10-12T04:54:55;95529.63;;;13.65;72.60
16793;BME280;8513;42.662;23.350;2022-10-12T04:57:21;95520.44;;;13.77;72.30
16793;BME280;8513;42.662;23.350;2022-10-12T04:59:46;95536.84;;;13.89;72.27
16793;BME280;8513;42.662;23.350;2022-10-12T05:02:11;95525.91;;;13.84;72.43
16793;BME280;8513;42.662;23.350;2022-10-12T05:04:37;95539.44;;;13.81;72.68
16793;BME280;8513;42.662;23.350;2022-10-12T05:07:02;95532.97;;;13.75;73.48
16793;BME280;8513;42.662;23.350;2022-10-12T05:09:28;95539.13;;;13.84;72.85
16793;BME280;8513;42.662;23.350;2022-10-12T05:11:53;95538.44;;;13.82;72.93
16793;BME280;8513;42.662;23.350;2022-10-12T05:14:19;95531.53;;;13.89;73.00
16793;BME280;8513;42.662;23.350;2022-10-12T05:16:44;95544.25;;;13.85;72.91
16793;BME280;8513;42.662;23.350;2022-10-12T05:19:10;95543.72;;;13.82;73.02
16793;BME280;8513;42.662;23.350;2022-10-12T05:21:35;95550.72;;;13.91;73.02
16793;BME280;8513;42.662;23.350;2022-10-12T05:24:01;95545.75;;;13.88;73.33
16793;BME280;8513;42.662;23.350;2022-10-12T05:26:26;95557.34;;;13.95;73.24
16793;BME280;8513;42.662;23.350;2022-10-12T05:28:51;95556.00;;;13.91;72.98
16793;BME280;8513;42.662;23.350;2022-10-12T05:31:17;95556.50;;;13.95;72.96
16793;BME280;8513;42.662;23.350;2022-10-12T05:33:42;95562.56;;;13.79;72.58
16793;BME280;8513;42.662;23.350;2022-10-12T05:36:08;95563.94;;;13.91;72.40
16793;BME280;8513;42.662;23.350;2022-10-12T05:38:33;95566.44;;;13.93;72.11
16793;BME280;8513;42.662;23.350;2022-10-12T05:40:59;95560.63;;;13.89;71.88
16793;BME280;8513;42.662;23.350;2022-10-12T05:43:24;95561.97;;;13.93;71.69
16793;BME280;8513;42.662;23.350;2022-10-12T05:45:50;95565.63;;;14.00;71.50
16793;BME280;8513;42.662;23.350;2022-10-12T05:48:15;95565.63;;;14.00;71.45
16793;BME280;8513;42.662;23.350;2022-10-12T05:50:41;95570.75;;;14.02;71.57
16793;BME280;8513;42.662;23.350;2022-10-12T05:53:06;95573.72;;;13.99;71.57
16793;BME280;8513;42.662;23.350;2022-10-12T05:55:31;95574.72;;;14.06;71.35
16793;BME280;8513;42.662;23.350;2022-10-12T05:57:57;95576.28;;;14.17;71.06
16793;BME280;8513;42.662;23.350;2022-10-12T06:00:23;95587.13;;;14.05;71.27
16793;BME280;8513;42.662;23.350;2022-10-12T06:02:48;95587.91;;;13.98;71.81
16793;BME280;8513;42.662;23.350;2022-10-12T06:05:13;95583.31;;;14.00;71.48
16793;BME280;8513;42.662;23.350;2022-10-12T06:07:39;95583.00;;;14.11;71.06
16793;BME280;8513;42.662;23.350;2022-10-12T06:10:05;95590.78;;;14.12;71.07
16793;BME280;8513;42.662;23.350;2022-10-12T06:12:31;95599.22;;;14.16;70.76
16793;BME280;8513;42.662;23.350;2022-10-12T06:14:57;95588.84;;;14.15;70.90
16793;BME280;8513;42.662;23.350;2022-10-12T06:17:22;95602.53;;;14.10;71.21
16793;BME280;8513;42.662;23.350;2022-10-12T06:19:47;95596.75;;;14.15;71.33
16793;BME280;8513;42.662;23.350;2022-10-12T06:22:13;95602.47;;;14.36;70.67
16793;BME280;8513;42.662;23.350;2022-10-12T06:24:38;95593.16;;;14.32;70.69
16793;BME280;8513;42.662;23.350;2022-10-12T06:27:04;95597.34;;;14.43;70.16
16793;BME280;8513;42.662;23.350;2022-10-12T06:29:29;95595.03;;;14.48;69.91
16793;BME280;8513;42.662;23.350;2022-10-12T06:31:54;95596.09;;;14.55;69.53
16793;BME280;8513;42.662;23.350;2022-10-12T06:34:20;95607.50;;;14.64;69.29
16793;BME280;8513;42.662;23.350;2022-10-12T06:36:46;95599.44;;;14.65;69.39
16793;BME280;8513;42.662;23.350;2022-10-12T06:39:11;95608.00;;;14.67;68.94
16793;BME280;8513;42.662;23.350;2022-10-12T06:41:37;95610.28;;;14.54;69.47
16793;BME280;8513;42.662;23.350;2022-10-12T06:44:03;95614.44;;;14.56;69.64
16793;BME280;8513;42.662;23.350;2022-10-12T06:46:29;95620.88;;;14.54;69.82
16793;BME280;8513;42.662;23.350;2022-10-12T06:48:54;95618.47;;;14.77;68.98
16793;BME280;8513;42.662;23.350;2022-10-12T06:51:20;95615.13;;;14.67;68.99
16793;BME280;8513;42.662;23.350;2022-10-12T06:53:45;95621.75;;;14.71;68.75
16793;BME280;8513;42.662;23.350;2022-10-12T06:56:11;95622.44;;;14.73;68.61
16793;BME280;8513;42.662;23.350;2022-10-12T06:58:37;95622.44;;;14.81;68.95
16793;BME280;8513;42.662;23.350;2022-10-12T07:01:05;95623.78;;;14.93;68.40
16793;BME280;8513;42.662;23.350;2022-10-12T07:03:31;95621.47;;;14.90;68.38
16793;BME280;8513;42.662;23.350;2022-10-12T07:06:11;95616.00;;;14.92;68.40
16793;BME280;8513;42.662;23.350;2022-10-12T07:08:38;95621.09;;;14.69;69.46
16793;BME280;8513;42.662;23.350;2022-10-12T07:11:08;95623.28;;;14.90;68.86
16793;BME280;8513;42.662;23.350;2022-10-12T07:13:34;95616.34;;;14.97;68.19
16793;BME280;8513;42.662;23.350;2022-10-12T07:16:00;95614.34;;;14.99;68.12
16793;BME280;8513;42.662;23.350;2022-10-12T07:18:25;95618.81;;;15.15;68.06
16793;BME280;8513;42.662;23.350;2022-10-12T07:20:51;95617.19;;;15.30;67.45
16793;BME280;8513;42.662;23.350;2022-10-12T07:23:17;95625.13;;;15.30;66.68
16793;BME280;8513;42.662;23.350;2022-10-12T07:25:49;95624.44;;;15.36;66.52
16793;BME280;8513;42.662;23.350;2022-10-12T07:28:16;95632.06;;;15.23;66.85
16793;BME280;8513;42.662;23.350;2022-10-12T07:30:42;95619.50;;;15.25;66.74
16793;BME280;8513;42.662;23.350;2022-10-12T07:33:07;95621.47;;;15.31;66.17
16793;BME280;8513;42.662;23.350;2022-10-12T07:35:33;95626.47;;;15.34;66.06
16793;BME280;8513;42.662;23.350;2022-10-12T07:37:58;95624.31;;;15.38;66.23
16793;BME280;8513;42.662;23.350;2022-10-12T07:40:23;95629.44;;;15.48;66.12
16793;BME280;8513;42.662;23.350;2022-10-12T07:42:51;95630.91;;;15.42;65.73
16793;BME280;8513;42.662;23.350;2022-10-12T07:45:16;95635.38;;;15.41;65.90
16793;BME280;8513;42.662;23.350;2022-10-12T07:47:41;95629.09;;;15.42;65.80
16793;BME280;8513;42.662;23.350;2022-10-12T07:50:07;95633.91;;;15.39;65.94
16793;BME280;8513;42.662;23.350;2022-10-12T07:52:34;95640.34;;;15.44;65.81
16793;BME280;8513;42.662;23.350;2022-10-12T07:54:59;95635.06;;;15.36;65.97
16793;BME280;8513;42.662;23.350;2022-10-12T07:57:25;95621.47;;;15.23;66.35
16793;BME280;8513;42.662;23.350;2022-10-12T07:59:50;95630.09;;;15.41;66.04
16793;BME280;8513;42.662;23.350;2022-10-12T08:02:41;95634.06;;;15.37;66.59
16793;BME280;8513;42.662;23.350;2022-10-12T08:05:07;95637.22;;;15.33;67.00
16793;BME280;8513;42.662;23.350;2022-10-12T08:07:32;95630.59;;;15.53;65.85
16793;BME280;8513;42.662;23.350;2022-10-12T08:09:58;95626.47;;;15.42;65.69
16793;BME280;8513;42.662;23.350;2022-10-12T08:12:23;95636.38;;;15.40;65.81
16793;BME280;8513;42.662;23.350;2022-10-12T08:14:49;95624.44;;;15.44;65.31
16793;BME280;8513;42.662;23.350;2022-10-12T08:17:14;95627.09;;;15.36;65.84
16793;BME280;8513;42.662;23.350;2022-10-12T08:19:40;95635.22;;;15.35;65.79
16793;BME280;8513;42.662;23.350;2022-10-12T08:22:05;95628.59;;;15.39;65.92
16793;BME280;8513;42.662;23.350;2022-10-12T08:24:31;95632.09;;;15.48;65.38
16793;BME280;8513;42.662;23.350;2022-10-12T08:26:56;95622.94;;;15.50;65.36
16793;BME280;8513;42.662;23.350;2022-10-12T08:29:22;95626.13;;;15.70;64.51
16793;BME280;8513;42.662;23.350;2022-10-12T08:31:47;95630.72;;;15.84;64.00
16793;BME280;8513;42.662;23.350;2022-10-12T08:34:15;95626.56;;;15.90;63.52
16793;BME280;8513;42.662;23.350;2022-10-12T08:36:40;95625.75;;;15.81;63.99
16793;BME280;8513;42.662;23.350;2022-10-12T08:39:06;95627.25;;;15.84;63.73
16793;BME280;8513;42.662;23.350;2022-10-12T08:41:53;95624.44;;;15.77;63.50
16793;BME280;8513;42.662;23.350;2022-10-12T08:47:23;95624.78;;;15.82;63.65
16793;BME280;8513;42.662;23.350;2022-10-12T08:49:50;95629.06;;;15.83;63.70
16793;BME280;8513;42.662;23.350;2022-10-12T08:52:37;95625.06;;;15.87;63.24
16793;BME280;8513;42.662;23.350;2022-10-12T08:55:18;95634.19;;;15.93;63.10
16793;BME280;8513;42.662;23.350;2022-10-12T08:57:44;95636.16;;;15.99;62.68
16793;BME280;8513;42.662;23.350;2022-10-12T09:00:14;95627.00;;;16.10;62.13
16793;BME280;8513;42.662;23.350;2022-10-12T09:03:07;95627.50;;;16.14;62.35
16793;BME280;8513;42.662;23.350;2022-10-12T09:14:07;95618.28;;;16.32;62.02
16793;BME280;8513;42.662;23.350;2022-10-12T09:16:38;95622.09;;;16.38;61.76
16793;BME280;8513;42.662;23.350;2022-10-12T09:19:28;95622.91;;;16.47;62.08
16793;BME280;8513;42.662;23.350;2022-10-12T09:21:56;95623.00;;;16.53;61.45
16793;BME280;8513;42.662;23.350;2022-10-12T09:24:25;95624.44;;;16.64;61.34
16793;BME280;8513;42.662;23.350;2022-10-12T09:26:54;95634.53;;;16.77;61.12
16793;BME280;8513;42.662;23.350;2022-10-12T09:29:29;95628.06;;;16.80;60.75
16793;BME280;8513;42.662;23.350;2022-10-12T09:34:30;95634.28;;;16.95;60.72
16793;BME280;8513;42.662;23.350;2022-10-12T09:36:56;95632.75;;;17.01;60.37
16793;BME280;8513;42.662;23.350;2022-10-12T09:39:30;95635.75;;;17.20;60.39
16793;BME280;8513;42.662;23.350;2022-10-12T09:41:56;95628.41;;;17.23;60.09
16793;BME280;8513;42.662;23.350;2022-10-12T09:44:35;95622.09;;;17.24;60.29
16793;BME280;8513;42.662;23.350;2022-10-12T09:47:06;95634.41;;;17.25;59.82
16793;BME280;8513;42.662;23.350;2022-10-12T09:49:54;95633.97;;;17.36;59.46
16793;BME280;8513;42.662;23.350;2022-10-12T09:54:53;95635.91;;;17.42;59.33
16793;BME280;8513;42.662;23.350;2022-10-12T09:57:22;95621.25;;;17.46;59.04
16793;BME280;8513;42.662;23.350;2022-10-12T09:59:50;95629.38;;;17.30;58.99
16793;BME280;8513;42.662;23.350;2022-10-12T10:02:18;95623.09;;;17.23;58.59
16793;BME280;8513;42.662;23.350;2022-10-12T10:04:47;95623.22;;;17.29;58.47
16793;BME280;8513;42.662;23.350;2022-10-12T10:07:27;95630.41;;;17.44;58.32
16793;BME280;8513;42.662;23.350;2022-10-12T10:17:51;95622.81;;;17.17;58.94
16793;BME280;8513;42.662;23.350;2022-10-12T10:20:42;95615.38;;;17.13;58.98
16793;BME280;8513;42.662;23.350;2022-10-12T10:23:25;95612.53;;;17.37;58.06
16793;BME280;8513;42.662;23.350;2022-10-12T10:26:06;95605.44;;;17.68;57.15
16793;BME280;8513;42.662;23.350;2022-10-12T10:28:37;95609.06;;;17.90;56.55
16793;BME280;8513;42.662;23.350;2022-10-12T10:31:06;95602.91;;;17.89;56.02
16793;BME280;8513;42.662;23.350;2022-10-12T10:33:35;95597.69;;;17.81;56.88
16793;BME280;8513;42.662;23.350;2022-10-12T10:38:29;95598.31;;;17.98;56.20
16793;BME280;8513;42.662;23.350;2022-10-12T10:40:56;95592.91;;;18.06;55.51
16793;BME280;8513;42.662;23.350;2022-10-12T10:43:27;95592.47;;;18.02;55.63
16793;BME280;8513;42.662;23.350;2022-10-12T10:46:01;95591.81;;;18.15;55.30
16793;BME280;8513;42.662;23.350;2022-10-12T10:48:30;95588.97;;;18.17;54.95
16793;BME280;8513;42.662;23.350;2022-10-12T10:51:01;95584.84;;;18.29;54.95
16793;BME280;8513;42.662;23.350;2022-10-12T10:53:42;95575.91;;;18.37;54.83
16793;BME280;8513;42.662;23.350;2022-10-12T10:56:11;95584.63;;;18.45;54.31
16793;BME280;8513;42.662;23.350;2022-10-12T11:06:36;95576.22;;;18.63;53.72
16793;BME280;8513;42.662;23.350;2022-10-12T11:09:09;95577.31;;;18.69;53.56
16793;BME280;8513;42.662;23.350;2022-10-12T11:11:37;95567.38;;;18.78;53.40
16793;BME280;8513;42.662;23.350;2022-10-12T11:14:27;95564.53;;;18.79;53.36
16793;BME280;8513;42.662;23.350;2022-10-12T11:17:16;95561.75;;;18.87;53.16
16793;BME280;8513;42.662;23.350;2022-10-12T11:22:44;95556.47;;;19.15;52.04
16793;BME280;8513;42.662;23.350;2022-10-12T11:25:24;95560.06;;;19.29;51.93
16793;BME280;8513;42.662;23.350;2022-10-12T11:27:53;95556.59;;;19.29;51.48
16793;BME280;8513;42.662;23.350;2022-10-12T11:30:21;95557.00;;;19.32;51.29
16793;BME280;8513;42.662;23.350;2022-10-12T11:32:59;95558.25;;;19.58;50.55
16793;BME280;8513;42.662;23.350;2022-10-12T11:35:28;95549.34;;;19.51;50.27
16793;BME280;8513;42.662;23.350;2022-10-12T11:38:02;95550.38;;;19.50;50.80
16793;BME280;8513;42.662;23.350;2022-10-12T11:40:31;95543.75;;;19.67;49.84
16793;BME280;8513;42.662;23.350;2022-10-12T11:43:04;95550.06;;;19.59;50.41
16793;BME280;8513;42.662;23.350;2022-10-12T11:45:35;95540.59;;;19.57;49.98
16793;BME280;8513;42.662;23.350;2022-10-12T11:48:10;95549.44;;;19.64;49.85
16793;BME280;8513;42.662;23.350;2022-10-12T11:50:39;95541.97;;;19.46;50.29
16793;BME280;8513;42.662;23.350;2022-10-12T11:56:12;95539.06;;;19.41;50.28
16793;BME280;8513;42.662;23.350;2022-10-12T11:58:42;95535.88;;;19.59;50.44
16793;BME280;8513;42.662;23.350;2022-10-12T12:06:57;95548.03;;;19.96;49.35
16793;BME280;8513;42.662;23.350;2022-10-12T12:12:13;95542.19;;;19.79;49.29
16793;BME280;8513;42.662;23.350;2022-10-12T12:19:47;95538.75;;;19.57;49.71
16793;BME280;8513;42.662;23.350;2022-10-12T12:30:34;95540.28;;;19.45;50.30
16793;BME280;8513;42.662;23.350;2022-10-12T12:33:21;95541.66;;;19.34;50.10
16793;BME280;8513;42.662;23.350;2022-10-12T12:35:58;95535.94;;;19.37;50.35
16793;BME280;8513;42.662;23.350;2022-10-12T12:38:29;95535.41;;;19.21;50.80
16793;BME280;8513;42.662;23.350;2022-10-12T12:43:57;95545.63;;;19.45;50.26
16793;BME280;8513;42.662;23.350;2022-10-12T12:52:04;95552.22;;;19.71;49.84
16793;BME280;8513;42.662;23.350;2022-10-12T12:54:34;95548.91;;;19.69;49.41
16793;BME280;8513;42.662;23.350;2022-10-12T13:15:42;95550.75;;;21.59;44.92
16793;BME280;8513;42.662;23.350;2022-10-12T13:20:54;95545.84;;;22.34;43.06
16793;BME280;8513;42.662;23.350;2022-10-12T13:23:22;95549.81;;;22.70;42.25
16793;BME280;8513;42.662;23.350;2022-10-12T13:25:52;95548.84;;;24.58;38.75
16793;BME280;8513;42.662;23.350;2022-10-12T13:28:28;95546.56;;;24.74;37.14
16793;BME280;8513;42.662;23.350;2022-10-12T13:31:06;95543.75;;;23.95;38.80
16793;BME280;8513;42.662;23.350;2022-10-12T13:33:37;95545.03;;;23.42;40.24
16793;BME280;8513;42.662;23.350;2022-10-12T13:36:43;95551.72;;;23.83;39.77
16793;BME280;8513;42.662;23.350;2022-10-12T13:38:59;95553.44;;;26.59;33.79
16793;BME280;8513;42.662;23.350;2022-10-12T13:41:26;95564.69;;;24.48;37.32
16793;BME280;8513;42.662;23.350;2022-10-12T13:44:02;95555.81;;;23.36;39.86
16793;BME280;8513;42.662;23.350;2022-10-12T13:49:25;95562.22;;;24.47;37.93
16793;BME280;8513;42.662;23.350;2022-10-12T13:51:59;95553.22;;;24.71;37.46
16793;BME280;8513;42.662;23.350;2022-10-12T13:54:36;95552.09;;;25.63;36.09
16793;BME280;8513;42.662;23.350;2022-10-12T13:59:56;95547.44;;;24.01;38.18
16793;BME280;8513;42.662;23.350;2022-10-12T14:02:25;95543.59;;;23.15;40.45
16793;BME280;8513;42.662;23.350;2022-10-12T14:05:00;95548.47;;;22.54;41.53
16793;BME280;8513;42.662;23.350;2022-10-12T14:07:39;95553.59;;;21.77;43.20
16793;BME280;8513;42.662;23.350;2022-10-12T14:10:08;95552.97;;;21.22;44.88
16793;BME280;8513;42.662;23.350;2022-10-12T14:12:39;95549.38;;;20.68;46.35
16793;BME280;8513;42.662;23.350;2022-10-12T14:15:06;95546.72;;;20.68;46.58
16793;BME280;8513;42.662;23.350;2022-10-12T14:17:32;95547.41;;;20.36;47.66
16793;BME280;8513;42.662;23.350;2022-10-12T14:20:27;95545.38;;;20.44;47.41
16793;BME280;8513;42.662;23.350;2022-10-12T14:22:54;95550.47;;;20.33;47.54
16793;BME280;8513;42.662;23.350;2022-10-12T14:25:24;95549.59;;;20.19;47.91
16793;BME280;8513;42.662;23.350;2022-10-12T14:28:17;95553.53;;;19.88;48.38
16793;BME280;8513;42.662;23.350;2022-10-12T14:30:50;95543.56;;;19.69;48.65
16793;BME280;8513;42.662;23.350;2022-10-12T14:35:43;95549.97;;;19.46;49.46
16793;BME280;8513;42.662;23.350;2022-10-12T14:44:15;95547.91;;;18.99;51.06
16793;BME280;8513;42.662;23.350;2022-10-12T14:46:53;95545.25;;;18.99;51.27
16793;BME280;8513;42.662;23.350;2022-10-12T14:49:32;95530.72;;;19.01;50.95
16793;BME280;8513;42.662;23.350;2022-10-12T14:51:59;95539.16;;;19.05;51.05
16793;BME280;8513;42.662;23.350;2022-10-12T14:54:25;95533.84;;;18.83;51.14
16793;BME280;8513;42.662;23.350;2022-10-12T14:56:50;95539.34;;;18.82;51.30
16793;BME280;8513;42.662;23.350;2022-10-12T14:59:16;95539.13;;;18.62;51.74
16793;BME280;8513;42.662;23.350;2022-10-12T15:01:41;95543.78;;;18.60;52.04
16793;BME280;8513;42.662;23.350;2022-10-12T15:04:10;95542.91;;;18.52;52.13
16793;BME280;8513;42.662;23.350;2022-10-12T15:06:36;95546.53;;;18.66;51.87
16793;BME280;8513;42.662;23.350;2022-10-12T15:09:02;95538.03;;;18.56;52.42
16793;BME280;8513;42.662;23.350;2022-10-12T15:11:30;95539.63;;;18.50;52.73
16793;BME280;8513;42.662;23.350;2022-10-12T15:13:56;95534.13;;;18.37;52.96
16793;BME280;8513;42.662;23.350;2022-10-12T15:16:23;95544.16;;;18.35;52.80
16793;BME280;8513;42.662;23.350;2022-10-12T15:18:49;95541.41;;;18.28;52.99
16793;BME280;8513;42.662;23.350;2022-10-12T15:21:16;95543.72;;;18.17;53.24
16793;BME280;8513;42.662;23.350;2022-10-12T15:23:41;95545.72;;;18.15;53.49